This is the latest recevied weather packets stored in our database for station/object GW1599. If no packets are shown the sender has not sent any weather packets the latest 10 day(s).
| Time | Temp. | Humidity | Pressure | Rain* | Wind** | Luminosity | Snow |
|---|---|---|---|---|---|---|---|
| 1777435752 | 16.67° C | 91% | 1014.5 hPa | 0 mm | - | - | - |
| 1777434673 | 17.22° C | 90% | 1014.5 hPa | 11.43 mm | - | - | - |
| 1777432540 | 17.22° C | 89% | 1014.5 hPa | 11.43 mm | - | - | - |
| 1777431091 | 17.22° C | 89% | 1014.9 hPa | 11.43 mm | - | - | - |
| 1777427123 | 18.33° C | 86% | 1014.9 hPa | 11.43 mm | - | - | - |
| 1777426061 | 18.89° C | 85% | 1014.5 hPa | 11.43 mm | - | - | - |
| 1777425343 | 18.89° C | 84% | 1014.2 hPa | 11.43 mm | - | - | - |
| 1777423167 | 20° C | 80% | 1013.8 hPa | 11.43 mm | - | - | - |
| 1777421013 | 21.11° C | 76% | 1014.2 hPa | 11.43 mm | - | - | - |
| 1777418847 | 21.67° C | 74% | 1012.8 hPa | 11.43 mm | - | - | - |
| 1777416343 | 22.78° C | 70% | 1013.2 hPa | 11.43 mm | - | - | - |
| 1777414910 | 23.33° C | 70% | 1013.8 hPa | 11.43 mm | - | - | - |
| 1777414553 | 23.33° C | 70% | 1013.8 hPa | 11.43 mm | - | - | - |
| 1777413105 | 23.89° C | 66% | 1014.2 hPa | 11.43 mm | - | - | - |
| 1777412748 | 23.89° C | 67% | 1014.2 hPa | 11.43 mm | - | - | - |
| 1777409148 | 24.44° C | 68% | 1014.5 hPa | 11.43 mm | - | - | - |
| 1777408035 | 24.44° C | 66% | 1014.5 hPa | 11.43 mm | - | - | - |
| 1777407340 | 24.44° C | 69% | 1014.5 hPa | 11.43 mm | - | - | - |
| 1777402990 | 24.44° C | 72% | 1015.5 hPa | 11.43 mm | - | - | - |
| 1777400860 | 22.78° C | 77% | 1015.9 hPa | 11.43 mm | - | - | - |
| 1777399047 | 21.67° C | 77% | 1015.9 hPa | 11.43 mm | - | - | - |
| 1777395096 | 20° C | 80% | 1015.9 hPa | 11.43 mm | - | - | - |
| 1777392593 | 20° C | 78% | 1016.2 hPa | 11.43 mm | - | - | - |
| 1777388992 | 19.44° C | 78% | 1015.5 hPa | 11.43 mm | - | - | - |
| 1777386831 | 20° C | 74% | 1014.9 hPa | 11.43 mm | - | - | - |
* Rain since midnight (hover to see other rain measurements)
** Current wind speed in m/s (hover to see current wind gust speed)